createdAt,value
2022-08-05T00:01:35.562Z,98280.59
2022-08-05T00:04:02.368Z,98283.00
2022-08-05T00:06:33.226Z,98277.91
2022-08-05T00:09:03.818Z,98277.19
2022-08-05T00:11:34.986Z,98274.16
2022-08-05T00:14:17.111Z,98274.16
2022-08-05T00:16:52.836Z,98280.13
2022-08-05T00:19:22.460Z,98280.13
2022-08-05T00:21:49.571Z,98285.34
2022-08-05T00:24:19.294Z,98290.50
2022-08-05T00:26:53.154Z,98295.13
2022-08-05T00:29:22.572Z,98286.97
2022-08-05T00:32:10.910Z,98286.25
2022-08-05T00:34:54.548Z,98278.16
2022-08-05T00:37:27.581Z,98278.59
2022-08-05T00:40:13.836Z,98281.09
2022-08-05T00:42:48.247Z,98271.88
2022-08-05T00:45:16.050Z,98263.72
2022-08-05T00:47:57.062Z,98278.16
2022-08-05T00:50:31.568Z,98279.59
2022-08-05T00:52:58.177Z,98277.91
2022-08-05T00:55:42.475Z,98295.84
2022-08-05T00:58:13.351Z,98298.09
2022-08-05T01:00:40.956Z,98298.66
2022-08-05T01:03:22.185Z,98298.16
2022-08-05T01:05:51.439Z,98293.28
2022-08-05T01:08:40.762Z,98302.81
2022-08-05T01:11:22.056Z,98298.44
2022-08-05T01:14:01.189Z,98293.84
2022-08-05T01:16:49.303Z,98304.19
2022-08-05T01:19:18.805Z,98318.56
2022-08-05T01:22:15.606Z,98322.63
2022-08-05T01:24:50.622Z,98339.41
2022-08-05T01:27:58.344Z,98357.34
2022-08-05T01:30:35.156Z,98366.59
2022-08-05T01:33:08.291Z,98351.91
2022-08-05T01:35:50.809Z,98363.59
2022-08-05T01:38:26.871Z,98361.44
2022-08-05T01:40:58.876Z,98364.16
2022-08-05T01:43:28.013Z,98360.91
2022-08-05T01:45:57.695Z,98367.72
2022-08-05T01:48:27.610Z,98349.53
2022-08-05T01:50:56.749Z,98358.53
2022-08-05T01:53:54.640Z,98376.47
2022-08-05T01:58:12.973Z,98375.09
2022-08-05T01:59:06.678Z,98386.28
2022-08-05T02:01:40.230Z,98375.94
2022-08-05T02:04:10.345Z,98380.03
2022-08-05T02:06:39.017Z,98367.53
2022-08-05T02:09:07.103Z,98373.22
2022-08-05T02:11:48.064Z,98384.09
2022-08-05T02:14:29.385Z,98398.25
2022-08-05T02:17:07.328Z,98393.13
2022-08-05T02:19:47.446Z,98402.44
2022-08-05T02:22:29.354Z,98398.59
2022-08-05T02:25:22.507Z,98398.91
2022-08-05T02:27:59.461Z,98393.44
2022-08-05T02:30:38.510Z,98398.88
2022-08-05T02:33:24.356Z,98403.25
2022-08-05T02:36:05.128Z,98399.41
2022-08-05T02:38:35.488Z,98398.88
2022-08-05T02:41:14.717Z,98403.19
2022-08-05T02:44:02.533Z,98407.25
2022-08-05T02:46:34.405Z,98409.97
2022-08-05T02:49:01.467Z,98397.75
2022-08-05T02:52:02.985Z,98393.91
2022-08-05T02:54:36.532Z,98405.31
2022-08-05T02:57:10.096Z,98400.97
2022-08-05T02:59:56.015Z,98394.19
2022-08-05T03:02:28.474Z,98401.78
2022-08-05T03:04:57.440Z,98409.13
2022-08-05T03:08:00.409Z,98411.56
2022-08-05T03:10:21.760Z,98419.72
2022-08-05T03:12:53.382Z,98423.53
2022-08-05T03:15:23.414Z,98428.44
2022-08-05T03:17:54.159Z,98430.91
2022-08-05T03:20:23.647Z,98424.38
2022-08-05T03:22:51.419Z,98420.84
2022-08-05T03:25:32.402Z,98412.94
2022-08-05T03:28:02.962Z,98420.03
2022-08-05T03:30:33.831Z,98416.47
2022-08-05T03:33:01.979Z,98416.75
2022-08-05T03:35:33.738Z,98424.91
2022-08-05T03:38:01.508Z,98429.00
2022-08-05T03:40:31.878Z,98441.22
2022-08-05T03:43:01.508Z,98445.03
2022-08-05T03:45:58.339Z,98448.56
2022-08-05T03:48:27.141Z,98439.38
2022-08-05T03:52:37.822Z,98448.88
2022-08-05T03:55:51.935Z,98447.00
2022-08-05T03:57:16.541Z,98462.22
2022-08-05T03:59:54.958Z,98458.69
2022-08-05T04:02:38.468Z,98451.63
2022-08-05T04:05:09.734Z,98452.75
2022-08-05T04:07:53.532Z,98452.66
2022-08-05T04:10:27.695Z,98446.31
2022-08-05T04:12:56.337Z,98447.72
2022-08-05T04:15:27.758Z,98445.97
2022-08-05T04:18:02.834Z,98438.91
2022-08-05T04:20:32.362Z,98439.41
2022-08-05T04:23:00.316Z,98442.56
2022-08-05T04:25:56.856Z,98451.78
2022-08-05T04:28:17.202Z,98464.06
2022-08-05T04:30:44.696Z,98476.94
2022-08-05T04:33:11.724Z,98489.25
2022-08-05T04:36:15.724Z,98481.41
2022-08-05T04:38:39.938Z,98489.34
2022-08-05T04:41:09.558Z,98484.19
2022-08-05T04:43:46.495Z,98481.69
2022-08-05T04:46:27.930Z,98485.78
2022-08-05T04:48:57.985Z,98497.44
2022-08-05T04:51:25.582Z,98507.94
2022-08-05T04:54:01.339Z,98517.97
2022-08-05T04:56:35.162Z,98520.94
2022-08-05T04:59:22.273Z,98515.47
2022-08-05T05:02:35.388Z,98518.75
2022-08-05T05:04:47.857Z,98534.13
2022-08-05T05:07:17.681Z,98539.94
2022-08-05T05:09:46.382Z,98545.50
2022-08-05T05:12:13.034Z,98562.09
2022-08-05T05:14:49.503Z,98563.34
2022-08-05T05:17:23.513Z,98567.78
2022-08-05T05:19:53.832Z,98585.50
2022-08-05T05:22:23.613Z,98611.44
2022-08-05T05:25:00.095Z,98629.72
2022-08-05T05:27:44.793Z,98630.28
2022-08-05T05:30:29.522Z,98624.50
2022-08-05T05:33:00.972Z,98639.66
2022-08-05T05:35:34.437Z,98639.53
2022-08-05T05:38:05.648Z,98631.13
2022-08-05T05:40:35.564Z,98640.09
2022-08-05T05:43:03.220Z,98641.13
2022-08-05T05:45:29.935Z,98654.34
2022-08-05T05:48:07.027Z,98670.03
2022-08-05T05:50:43.846Z,98667.88
2022-08-05T05:53:21.196Z,98677.56
2022-08-05T05:55:52.061Z,98681.75
2022-08-05T05:58:30.134Z,98681.69
2022-08-05T06:01:13.078Z,98677.50
2022-08-05T06:04:00.613Z,98696.94
2022-08-05T06:06:30.861Z,98700.28
2022-08-05T06:08:58.230Z,98696.44
2022-08-05T06:11:29.059Z,98694.63
2022-08-05T06:13:56.754Z,98687.53
2022-08-05T06:16:29.831Z,98685.56
2022-08-05T06:19:05.626Z,98684.81
2022-08-05T06:21:37.106Z,98692.81
2022-08-05T06:24:11.194Z,98685.56
2022-08-05T06:26:51.334Z,98682.50
2022-08-05T06:29:25.286Z,98686.63
2022-08-05T06:32:26.186Z,98690.84
2022-08-05T06:34:57.803Z,98687.94
2022-08-05T06:37:56.252Z,98688.16
2022-08-05T06:40:13.043Z,98692.63
2022-08-05T06:42:40.583Z,98697.19
2022-08-05T06:45:09.273Z,98692.03
2022-08-05T06:48:37.220Z,98697.03
2022-08-05T06:50:23.711Z,98697.78
2022-08-05T06:52:58.572Z,98692.94
2022-08-05T06:55:30.320Z,98682.25
2022-08-05T06:58:29.705Z,98678.00
2022-08-05T07:00:51.984Z,98676.97
2022-08-05T07:03:20.037Z,98683.66
2022-08-05T07:05:55.254Z,98679.69
2022-08-05T07:08:23.794Z,98681.13
2022-08-05T07:10:53.403Z,98683.13
2022-08-05T07:13:56.623Z,98680.88
2022-08-05T07:16:12.090Z,98674.94
2022-08-05T07:18:57.357Z,98678.38
2022-08-05T07:21:26.137Z,98684.75
2022-08-05T07:23:52.637Z,98688.63
2022-08-05T07:26:22.763Z,98694.50
2022-08-05T07:28:51.871Z,98696.34
2022-08-05T07:31:20.051Z,98702.34
2022-08-05T07:34:08.314Z,98702.72
2022-08-05T07:36:36.499Z,98703.78
2022-08-05T07:39:08.038Z,98718.44
2022-08-05T07:42:08.001Z,98718.03
2022-08-05T07:44:37.741Z,98721.81
2022-08-05T07:47:06.197Z,98719.31
2022-08-05T07:49:34.463Z,98722.53
2022-08-05T07:52:10.263Z,98725.78
2022-08-05T07:54:38.650Z,98731.38
2022-08-05T07:57:22.540Z,98728.88
2022-08-05T07:59:55.736Z,98734.91
2022-08-05T08:02:31.140Z,98739.09
2022-08-05T08:05:16.554Z,98745.97
2022-08-05T08:07:59.276Z,98748.22
2022-08-05T08:10:28.055Z,98747.75
2022-08-05T08:12:58.591Z,98744.22
2022-08-05T08:15:37.063Z,98746.16
2022-08-05T08:18:14.360Z,98741.34
2022-08-05T08:20:43.195Z,98745.16
2022-08-05T08:24:03.400Z,98745.66
2022-08-05T08:25:58.991Z,98739.19
2022-08-05T08:28:36.730Z,98741.59
2022-08-05T08:31:09.462Z,98738.75
2022-08-05T08:33:42.053Z,98737.94
2022-08-05T08:36:37.490Z,98743.81
2022-08-05T08:38:57.788Z,98739.91
2022-08-05T08:41:50.646Z,98745.59
2022-08-05T08:45:21.422Z,98751.97
2022-08-05T08:47:46.913Z,98742.47
2022-08-05T08:50:05.964Z,98742.25
2022-08-05T08:52:57.062Z,98744.34
2022-08-05T08:56:02.007Z,98739.81
2022-08-05T08:58:13.173Z,98734.50
2022-08-05T09:00:41.010Z,98729.31
2022-08-05T09:03:10.283Z,98713.50
2022-08-05T09:05:39.038Z,98717.53
2022-08-05T09:08:26.567Z,98717.69
2022-08-05T09:10:54.036Z,98721.25
2022-08-05T09:13:20.664Z,98711.22
2022-08-05T09:15:50.964Z,98715.91
2022-08-05T09:18:17.636Z,98709.38
2022-08-05T09:20:47.281Z,98715.56
2022-08-05T09:23:18.832Z,98716.38
2022-08-05T09:26:00.818Z,98704.72
2022-08-05T09:28:33.567Z,98703.34
2022-08-05T09:31:03.700Z,98700.00
2022-08-05T09:33:58.020Z,98694.25
2022-08-05T09:36:37.736Z,98699.50
2022-08-05T09:39:18.562Z,98690.16
2022-08-05T09:42:03.424Z,98689.44
2022-08-05T09:44:36.669Z,98694.44
2022-08-05T09:47:15.947Z,98682.81
2022-08-05T09:50:00.823Z,98679.34
2022-08-05T09:52:46.884Z,98682.09
2022-08-05T09:55:57.335Z,98672.41
2022-08-05T09:58:15.545Z,98672.94
2022-08-05T10:00:58.179Z,98685.78
2022-08-05T10:03:56.860Z,98676.91
2022-08-05T10:06:19.970Z,98670.31
2022-08-05T10:08:50.280Z,98673.19
2022-08-05T10:11:20.875Z,98668.41
2022-08-05T10:13:54.751Z,98666.00
2022-08-05T10:16:30.499Z,98666.00
2022-08-05T10:19:00.312Z,98670.63
2022-08-05T10:21:27.531Z,98662.28
2022-08-05T10:24:05.176Z,98669.25
2022-08-05T10:26:36.641Z,98665.00
2022-08-05T10:29:20.353Z,98661.16
2022-08-05T10:32:52.444Z,98662.75
2022-08-05T10:34:40.881Z,98663.81
2022-08-05T10:37:08.197Z,98668.31
2022-08-05T10:40:03.175Z,98658.63
2022-08-05T10:42:32.577Z,98658.03
2022-08-05T10:45:21.510Z,98660.69
2022-08-05T10:48:31.809Z,98664.47
2022-08-05T10:51:21.862Z,98654.69
2022-08-05T10:53:58.413Z,98645.00
2022-08-05T10:56:44.996Z,98646.03
2022-08-05T11:00:02.989Z,98652.19
2022-08-05T11:02:14.700Z,98656.03
2022-08-05T11:04:59.521Z,98649.97
2022-08-05T11:07:32.862Z,98657.72
2022-08-05T11:10:23.137Z,98654.03
2022-08-05T11:12:55.292Z,98649.16
2022-08-05T11:16:01.278Z,98655.06
2022-08-05T11:18:32.513Z,98654.72
2022-08-05T11:21:00.990Z,98659.44
2022-08-05T11:24:04.560Z,98669.09
2022-08-05T11:26:37.916Z,98667.63
2022-08-05T11:29:12.936Z,98666.06
2022-08-05T11:31:58.329Z,98663.91
2022-08-05T11:34:51.709Z,98665.84
2022-08-05T11:38:29.219Z,98666.34
2022-08-05T11:41:34.661Z,98661.69
2022-08-05T11:44:07.355Z,98664.16
2022-08-05T11:47:09.361Z,98670.97
2022-08-05T11:49:28.824Z,98657.47
2022-08-05T11:52:00.523Z,98667.13
2022-08-05T11:54:33.471Z,98661.38
2022-08-05T11:57:07.639Z,98670.28
2022-08-05T11:59:49.569Z,98659.44
2022-08-05T12:02:29.855Z,98652.75
2022-08-05T12:05:07.558Z,98647.22
2022-08-05T12:08:07.429Z,98658.03
2022-08-05T12:10:39.076Z,98656.97
2022-08-05T12:13:15.501Z,98661.63
2022-08-05T12:15:45.125Z,98658.97
2022-08-05T12:18:20.816Z,98648.47
2022-08-05T12:20:51.221Z,98640.84
2022-08-05T12:23:20.449Z,98643.50
2022-08-05T12:25:51.294Z,98647.31
2022-08-05T12:28:39.266Z,98635.38
2022-08-05T12:31:06.188Z,98636.06
2022-08-05T12:33:36.304Z,98636.63
2022-08-05T12:36:08.385Z,98633.63
2022-08-05T12:38:41.392Z,98631.03
2022-08-05T12:41:16.175Z,98623.47
2022-08-05T12:44:00.846Z,98642.16
2022-08-05T12:46:32.150Z,98624.91
2022-08-05T12:49:13.008Z,98619.34
2022-08-05T12:52:11.051Z,98631.19
2022-08-05T12:54:47.577Z,98616.72
2022-08-05T12:57:17.697Z,98619.13
2022-08-05T13:01:57.739Z,98604.66
2022-08-05T13:02:40.195Z,98612.31
2022-08-05T13:05:08.710Z,98603.28
2022-08-05T13:07:59.372Z,98610.84
2022-08-05T13:10:28.640Z,98598.13
2022-08-05T13:12:58.499Z,98606.84
2022-08-05T13:15:41.510Z,98602.06
2022-08-05T13:18:19.802Z,98597.31
2022-08-05T13:20:50.111Z,98592.66
2022-08-05T13:23:22.142Z,98591.72
2022-08-05T13:25:52.573Z,98586.56
2022-08-05T13:28:27.304Z,98582.78
2022-08-05T13:30:53.973Z,98579.91
2022-08-05T13:34:21.751Z,98586.16
2022-08-05T13:36:09.270Z,98581.50
2022-08-05T13:38:41.998Z,98574.00
2022-08-05T13:41:09.727Z,98572.44
2022-08-05T13:43:44.218Z,98567.59
2022-08-05T13:46:43.873Z,98561.66
2022-08-05T13:49:11.795Z,98555.00
2022-08-05T13:51:41.564Z,98549.41
2022-08-05T13:54:15.050Z,98552.59
2022-08-05T13:56:44.992Z,98546.78
2022-08-05T13:59:23.965Z,98545.13
2022-08-05T14:01:57.633Z,98539.66
2022-08-05T14:04:38.079Z,98535.88
2022-08-05T14:07:25.161Z,98531.09
2022-08-05T14:09:51.877Z,98536.19
2022-08-05T14:12:32.283Z,98531.06
2022-08-05T14:15:00.146Z,98531.00
2022-08-05T14:17:28.221Z,98533.84
2022-08-05T14:20:00.955Z,98527.94
2022-08-05T14:22:34.549Z,98524.00
2022-08-05T14:25:06.413Z,98534.84
2022-08-05T14:27:47.544Z,98527.03
2022-08-05T14:30:20.236Z,98520.91
2022-08-05T14:32:48.105Z,98517.69
2022-08-05T14:35:14.898Z,98527.44
2022-08-05T14:37:48.315Z,98529.66
2022-08-05T14:40:17.558Z,98524.94
2022-08-05T14:42:44.423Z,98515.97
2022-08-05T14:45:11.249Z,98517.22
2022-08-05T14:48:02.972Z,98514.94
2022-08-05T14:50:25.426Z,98527.03
2022-08-05T14:52:56.786Z,98520.81
2022-08-05T14:55:28.738Z,98526.34
2022-08-05T14:58:14.040Z,98515.28
2022-08-05T15:00:59.570Z,98517.00
2022-08-05T15:03:38.873Z,98514.47
2022-08-05T15:06:15.083Z,98518.97
2022-08-05T15:08:59.553Z,98518.47
2022-08-05T15:11:50.842Z,98523.13
2022-08-05T15:14:33.631Z,98515.72
2022-08-05T15:17:45.058Z,98525.97
2022-08-05T15:19:55.114Z,98534.47
2022-08-05T15:22:21.913Z,98542.19
2022-08-05T15:24:54.229Z,98551.56
2022-08-05T15:27:20.810Z,98549.34
2022-08-05T15:29:49.616Z,98534.88
2022-08-05T15:32:16.634Z,98519.09
2022-08-05T15:34:43.348Z,98524.66
2022-08-05T15:37:15.639Z,98517.56
2022-08-05T15:40:58.794Z,98531.50
2022-08-05T15:42:55.249Z,98540.97
2022-08-05T15:45:23.165Z,98539.66
2022-08-05T15:48:05.411Z,98553.84
2022-08-05T15:50:33.512Z,98541.03
2022-08-05T15:53:05.682Z,98545.06
2022-08-05T15:56:02.026Z,98550.22
2022-08-05T15:58:19.770Z,98546.63
2022-08-05T16:01:04.362Z,98542.78
2022-08-05T16:03:36.776Z,98546.66
2022-08-05T16:06:08.780Z,98540.22
2022-08-05T16:08:39.910Z,98543.44
2022-08-05T16:11:09.289Z,98547.50
2022-08-05T16:13:36.831Z,98541.97
2022-08-05T16:16:06.332Z,98547.31
2022-08-05T16:18:33.630Z,98530.81
2022-08-05T16:21:01.218Z,98550.91
2022-08-05T16:23:53.352Z,98554.72
2022-08-05T16:26:17.889Z,98560.69
2022-08-05T16:28:44.673Z,98566.25
2022-08-05T16:31:11.183Z,98581.94
2022-08-05T16:33:41.593Z,98579.59
2022-08-05T16:36:08.902Z,98595.75
2022-08-05T16:38:35.723Z,98597.47
2022-08-05T16:42:12.259Z,98591.06
2022-08-05T16:43:56.327Z,98594.00
2022-08-05T16:46:24.903Z,98597.16
2022-08-05T16:48:52.266Z,98592.66
2022-08-05T16:51:19.708Z,98606.44
2022-08-05T16:54:05.862Z,98596.13
2022-08-05T16:56:36.700Z,98594.31
2022-08-05T16:59:08.773Z,98610.00
2022-08-05T17:01:53.576Z,98604.97
2022-08-05T17:04:23.663Z,98608.00
2022-08-05T17:06:53.103Z,98610.88
2022-08-05T17:09:20.563Z,98596.81
2022-08-05T17:11:48.646Z,98616.53
2022-08-05T17:14:34.209Z,98618.81
2022-08-05T17:17:04.280Z,98614.00
2022-08-05T17:19:32.290Z,98620.22
2022-08-05T17:22:02.206Z,98620.56
2022-08-05T17:24:38.716Z,98623.53
2022-08-05T17:27:09.133Z,98637.63
2022-08-05T17:29:41.075Z,98642.31
2022-08-05T17:32:17.226Z,98644.84
2022-08-05T17:34:47.561Z,98649.06
2022-08-05T17:37:40.803Z,98649.84
2022-08-05T17:40:02.808Z,98651.53
2022-08-05T17:42:32.799Z,98661.22
2022-08-05T17:45:00.427Z,98673.94
2022-08-05T17:47:47.003Z,98672.53
2022-08-05T17:50:27.848Z,98667.88
2022-08-05T17:52:56.369Z,98656.97
2022-08-05T17:55:27.372Z,98669.78
2022-08-05T17:58:01.672Z,98670.56
2022-08-05T18:00:28.592Z,98673.09
2022-08-05T18:02:55.997Z,98686.31
2022-08-05T18:05:22.663Z,98684.66
2022-08-05T18:07:49.638Z,98696.75
2022-08-05T18:10:21.065Z,98704.84
2022-08-05T18:12:49.157Z,98705.88
2022-08-05T18:15:15.854Z,98708.31
2022-08-05T18:17:58.712Z,98716.34
2022-08-05T18:20:29.197Z,98724.28
2022-08-05T18:23:00.713Z,98717.34
2022-08-05T18:25:39.504Z,98716.34
2022-08-05T18:28:11.450Z,98728.06
2022-08-05T18:30:59.024Z,98739.63
2022-08-05T18:33:37.590Z,98736.28
2022-08-05T18:36:15.209Z,98742.00
2022-08-05T18:38:43.681Z,98758.63
2022-08-05T18:41:55.343Z,98758.53
2022-08-05T18:43:57.204Z,98761.78
2022-08-05T18:46:33.236Z,98777.56
2022-08-05T18:49:00.933Z,98774.91
2022-08-05T18:52:05.982Z,98784.41
2022-08-05T18:54:14.179Z,98783.31
2022-08-05T18:56:40.834Z,98784.69
2022-08-05T18:59:42.071Z,98791.50
2022-08-05T19:01:58.220Z,98794.53
2022-08-05T19:04:27.924Z,98806.34
2022-08-05T19:06:54.647Z,98807.94
2022-08-05T19:09:21.290Z,98803.03
2022-08-05T19:11:59.593Z,98806.66
2022-08-05T19:14:52.388Z,98816.97
2022-08-05T19:17:16.689Z,98833.25
2022-08-05T19:19:46.814Z,98833.28
2022-08-05T19:22:17.215Z,98827.59
2022-08-05T19:24:56.104Z,98830.16
2022-08-05T19:27:27.882Z,98832.72
2022-08-05T19:29:57.682Z,98825.41
2022-08-05T19:32:26.100Z,98834.16
2022-08-05T19:34:55.145Z,98823.84
2022-08-05T19:37:30.039Z,98831.28
2022-08-05T19:40:10.767Z,98841.66
2022-08-05T19:42:38.912Z,98844.22
2022-08-05T19:45:06.524Z,98850.78
2022-08-05T19:47:37.662Z,98848.16
2022-08-05T19:50:07.635Z,98862.72
2022-08-05T19:52:37.064Z,98875.91
2022-08-05T19:55:07.154Z,98876.78
2022-08-05T19:58:10.409Z,98880.91
2022-08-05T20:00:37.932Z,98878.50
2022-08-05T20:03:09.039Z,98873.38
2022-08-05T20:05:50.113Z,98881.59
2022-08-05T20:08:18.787Z,98880.00
2022-08-05T20:10:49.585Z,98884.91
2022-08-05T20:13:17.352Z,98899.91
2022-08-05T20:15:52.253Z,98899.91
2022-08-05T20:18:33.093Z,98904.25
2022-08-05T20:21:04.718Z,98901.53
2022-08-05T20:23:40.176Z,98906.47
2022-08-05T20:26:19.718Z,98900.47
2022-08-05T20:28:49.630Z,98908.63
2022-08-05T20:31:17.035Z,98905.38
2022-08-05T20:33:44.995Z,98895.81
2022-08-05T20:36:12.243Z,98905.13
2022-08-05T20:38:53.377Z,98915.22
2022-08-05T20:41:24.244Z,98922.88
2022-08-05T20:43:59.756Z,98930.53
2022-08-05T20:46:30.655Z,98922.59
2022-08-05T20:48:58.378Z,98937.06
2022-08-05T20:51:25.266Z,98944.19
2022-08-05T20:53:56.991Z,98958.38
2022-08-05T20:56:31.835Z,98976.69
2022-08-05T20:59:14.188Z,98963.38
2022-08-05T21:01:46.501Z,98963.28
2022-08-05T21:04:13.816Z,98981.25
2022-08-05T21:06:45.295Z,99001.38
2022-08-05T21:09:14.785Z,99003.75
2022-08-05T21:12:06.870Z,99001.03
2022-08-05T21:14:34.618Z,99005.03
2022-08-05T21:17:05.127Z,99019.44
2022-08-05T21:19:46.916Z,99023.50
2022-08-05T21:22:18.639Z,99040.88
2022-08-05T21:24:51.505Z,99050.13
2022-08-05T21:27:20.463Z,99054.53
2022-08-05T21:29:51.201Z,99067.06
2022-08-05T21:32:20.060Z,99074.63
2022-08-05T21:34:55.888Z,99082.22
2022-08-05T21:37:35.068Z,99073.19
2022-08-05T21:40:13.977Z,99073.69
2022-08-05T21:42:44.073Z,99070.19
2022-08-05T21:45:11.516Z,99063.91
2022-08-05T21:47:56.254Z,99059.78
2022-08-05T21:50:24.342Z,99050.16
2022-08-05T21:52:51.030Z,99045.81
2022-08-05T21:55:17.575Z,99044.69
2022-08-05T21:58:04.788Z,99053.84
2022-08-05T22:00:31.324Z,99065.50
2022-08-05T22:02:57.838Z,99080.19
2022-08-05T22:05:27.239Z,99086.19
2022-08-05T22:07:59.567Z,99081.81
2022-08-05T22:10:29.469Z,99087.78
2022-08-05T22:12:59.083Z,99089.94
2022-08-05T22:16:04.734Z,99091.97
2022-08-05T22:18:25.648Z,99098.41
2022-08-05T22:20:52.803Z,99096.50
2022-08-05T22:23:21.410Z,99093.22
2022-08-05T22:26:09.663Z,99102.53
2022-08-05T22:28:38.748Z,99105.94
2022-08-05T22:31:05.962Z,99103.81
2022-08-05T22:33:57.662Z,99105.69
2022-08-05T22:36:23.984Z,99116.78
2022-08-05T22:38:51.475Z,99119.50
2022-08-05T22:41:26.468Z,99137.13
2022-08-05T22:44:08.327Z,99147.00
2022-08-05T22:46:39.417Z,99156.31
2022-08-05T22:49:23.358Z,99158.16
2022-08-05T22:52:05.693Z,99172.25
2022-08-05T22:54:38.813Z,99160.38
2022-08-05T22:57:07.452Z,99158.03
2022-08-05T22:59:46.294Z,99152.16
2022-08-05T23:02:18.270Z,99162.47
2022-08-05T23:04:51.880Z,99163.50
2022-08-05T23:07:19.293Z,99156.75
2022-08-05T23:09:57.067Z,99156.75
2022-08-05T23:12:28.498Z,99156.09
2022-08-05T23:14:56.881Z,99169.50
2022-08-05T23:17:24.264Z,99175.28
2022-08-05T23:20:00.946Z,99180.72
2022-08-05T23:22:29.482Z,99170.63
2022-08-05T23:24:57.476Z,99171.25
2022-08-05T23:27:31.230Z,99179.81
2022-08-05T23:29:58.911Z,99177.88
2022-08-05T23:32:26.947Z,99188.22
2022-08-05T23:34:54.031Z,99182.81
2022-08-05T23:37:20.839Z,99187.22
2022-08-05T23:39:53.920Z,99197.75
2022-08-05T23:42:23.431Z,99198.78
2022-08-05T23:44:54.503Z,99195.34
2022-08-05T23:47:21.163Z,99192.56
2022-08-05T23:49:52.024Z,99210.16
2022-08-05T23:52:25.288Z,99211.31
2022-08-05T23:54:57.409Z,99202.84
2022-08-05T23:57:28.354Z,99195.13
